sensor_id;sensor_type;location;lat;lon;timestamp;pressure;altitude;pressure_sealevel;temperature;humidity
68859;BME280;55864;49.238;8.092;2023-11-21T00:01:37;98779.19;;;9.56;96.25
68859;BME280;55864;49.238;8.092;2023-11-21T00:03:39;98784.75;;;9.53;96.82
68859;BME280;55864;49.238;8.092;2023-11-21T00:05:39;98778.09;;;9.59;96.98
68859;BME280;55864;49.238;8.092;2023-11-21T00:07:40;98775.69;;;9.65;96.53
68859;BME280;55864;49.238;8.092;2023-11-21T00:09:43;98784.25;;;9.75;95.02
68859;BME280;55864;49.238;8.092;2023-11-21T00:11:43;98780.69;;;9.76;95.45
68859;BME280;55864;49.238;8.092;2023-11-21T00:13:44;98778.19;;;9.75;95.56
68859;BME280;55864;49.238;8.092;2023-11-21T00:15:45;98777.34;;;9.48;97.17
68859;BME280;55864;49.238;8.092;2023-11-21T00:17:45;98777.25;;;9.58;97.78
68859;BME280;55864;49.238;8.092;2023-11-21T00:19:47;98784.59;;;9.55;97.78
68859;BME280;55864;49.238;8.092;2023-11-21T00:21:47;98769.78;;;9.63;97.27
68859;BME280;55864;49.238;8.092;2023-11-21T00:23:48;98784.94;;;9.77;96.30
68859;BME280;55864;49.238;8.092;2023-11-21T00:25:49;98780.47;;;9.52;96.97
68859;BME280;55864;49.238;8.092;2023-11-21T00:27:49;98773.75;;;9.49;97.75
68859;BME280;55864;49.238;8.092;2023-11-21T00:29:50;98768.94;;;9.63;97.63
68859;BME280;55864;49.238;8.092;2023-11-21T00:31:50;98771.06;;;9.59;97.17
68859;BME280;55864;49.238;8.092;2023-11-21T00:33:51;98776.50;;;9.66;96.96
68859;BME280;55864;49.238;8.092;2023-11-21T00:35:53;98775.41;;;9.50;96.91
68859;BME280;55864;49.238;8.092;2023-11-21T00:37:54;98770.72;;;9.36;99.64
68859;BME280;55864;49.238;8.092;2023-11-21T00:39:54;98775.31;;;9.42;99.95
68859;BME280;55864;49.238;8.092;2023-11-21T00:41:55;98773.44;;;9.52;98.33
68859;BME280;55864;49.238;8.092;2023-11-21T00:43:55;98775.69;;;9.65;97.43
68859;BME280;55864;49.238;8.092;2023-11-21T00:45:56;98770.84;;;9.78;96.82
68859;BME280;55864;49.238;8.092;2023-11-21T00:47:56;98772.31;;;9.81;96.60
68859;BME280;55864;49.238;8.092;2023-11-21T00:49:57;98767.09;;;9.55;97.56
68859;BME280;55864;49.238;8.092;2023-11-21T00:51:59;98768.97;;;9.27;99.88
68859;BME280;55864;49.238;8.092;2023-11-21T00:54:00;98776.81;;;9.63;98.83
68859;BME280;55864;49.238;8.092;2023-11-21T00:56:01;98772.25;;;9.47;100.00
68859;BME280;55864;49.238;8.092;2023-11-21T00:58:01;98771.06;;;9.24;100.00
68859;BME280;55864;49.238;8.092;2023-11-21T01:00:02;98772.69;;;9.42;100.00
68859;BME280;55864;49.238;8.092;2023-11-21T01:02:03;98764.88;;;9.68;98.97
68859;BME280;55864;49.238;8.092;2023-11-21T01:04:05;98778.06;;;9.33;100.00
68859;BME280;55864;49.238;8.092;2023-11-21T01:06:06;98776.91;;;9.18;100.00
68859;BME280;55864;49.238;8.092;2023-11-21T01:08:08;98773.25;;;9.11;100.00
68859;BME280;55864;49.238;8.092;2023-11-21T01:10:10;98770.38;;;8.69;100.00
68859;BME280;55864;49.238;8.092;2023-11-21T01:12:11;98773.44;;;8.65;100.00
68859;BME280;55864;49.238;8.092;2023-11-21T01:14:12;98778.22;;;8.51;100.00
68859;BME280;55864;49.238;8.092;2023-11-21T01:16:12;98776.97;;;8.46;100.00
68859;BME280;55864;49.238;8.092;2023-11-21T01:18:13;98772.34;;;8.85;100.00
68859;BME280;55864;49.238;8.092;2023-11-21T01:20:14;98772.53;;;9.01;100.00
68859;BME280;55864;49.238;8.092;2023-11-21T01:22:14;98781.06;;;9.64;100.00
68859;BME280;55864;49.238;8.092;2023-11-21T01:24:16;98780.78;;;9.67;100.00
68859;BME280;55864;49.238;8.092;2023-11-21T01:26:17;98777.75;;;9.36;100.00
68859;BME280;55864;49.238;8.092;2023-11-21T01:28:17;98772.38;;;9.02;100.00
68859;BME280;55864;49.238;8.092;2023-11-21T01:30:18;98772.41;;;8.75;100.00
68859;BME280;55864;49.238;8.092;2023-11-21T01:32:19;98778.56;;;8.84;100.00
68859;BME280;55864;49.238;8.092;2023-11-21T01:34:19;98781.56;;;8.62;100.00
68859;BME280;55864;49.238;8.092;2023-11-21T01:36:20;98783.72;;;8.48;100.00
68859;BME280;55864;49.238;8.092;2023-11-21T01:38:20;98784.91;;;8.54;100.00
68859;BME280;55864;49.238;8.092;2023-11-21T01:40:22;98789.41;;;8.44;100.00
68859;BME280;55864;49.238;8.092;2023-11-21T01:42:23;98797.41;;;8.33;100.00
68859;BME280;55864;49.238;8.092;2023-11-21T01:44:24;98793.81;;;8.43;100.00
68859;BME280;55864;49.238;8.092;2023-11-21T01:46:26;98792.53;;;8.11;100.00
68859;BME280;55864;49.238;8.092;2023-11-21T01:48:27;98792.28;;;8.04;100.00
68859;BME280;55864;49.238;8.092;2023-11-21T01:50:28;98786.38;;;8.02;100.00
68859;BME280;55864;49.238;8.092;2023-11-21T01:52:29;98791.72;;;8.01;100.00
68859;BME280;55864;49.238;8.092;2023-11-21T01:54:30;98795.03;;;7.93;100.00
68859;BME280;55864;49.238;8.092;2023-11-21T01:56:32;98794.28;;;8.20;100.00
68859;BME280;55864;49.238;8.092;2023-11-21T01:58:33;98788.34;;;8.27;100.00
68859;BME280;55864;49.238;8.092;2023-11-21T02:00:33;98793.47;;;8.19;100.00
68859;BME280;55864;49.238;8.092;2023-11-21T02:02:34;98795.56;;;8.06;100.00
68859;BME280;55864;49.238;8.092;2023-11-21T02:04:35;98799.13;;;8.15;100.00
68859;BME280;55864;49.238;8.092;2023-11-21T02:06:37;98794.41;;;8.18;100.00
68859;BME280;55864;49.238;8.092;2023-11-21T02:08:38;98795.28;;;8.09;100.00
68859;BME280;55864;49.238;8.092;2023-11-21T02:10:38;98795.47;;;7.98;100.00
68859;BME280;55864;49.238;8.092;2023-11-21T02:12:40;98795.03;;;7.93;100.00
68859;BME280;55864;49.238;8.092;2023-11-21T02:14:41;98793.53;;;8.00;100.00
68859;BME280;55864;49.238;8.092;2023-11-21T02:16:41;98788.34;;;8.27;100.00
68859;BME280;55864;49.238;8.092;2023-11-21T02:18:42;98790.06;;;8.46;100.00
68859;BME280;55864;49.238;8.092;2023-11-21T02:20:43;98794.69;;;8.34;100.00
68859;BME280;55864;49.238;8.092;2023-11-21T02:22:48;98798.97;;;8.16;100.00
68859;BME280;55864;49.238;8.092;2023-11-21T02:24:49;98796.81;;;8.12;100.00
68859;BME280;55864;49.238;8.092;2023-11-21T02:26:50;98793.91;;;8.05;100.00
68859;BME280;55864;49.238;8.092;2023-11-21T02:28:51;98792.81;;;8.08;100.00
68859;BME280;55864;49.238;8.092;2023-11-21T02:30:52;98796.53;;;8.05;100.00
68859;BME280;55864;49.238;8.092;2023-11-21T02:32:53;98788.34;;;8.27;100.00
68859;BME280;55864;49.238;8.092;2023-11-21T02:34:53;98793.00;;;8.33;100.00
68859;BME280;55864;49.238;8.092;2023-11-21T02:36:54;98792.31;;;8.31;100.00
68859;BME280;55864;49.238;8.092;2023-11-21T02:38:56;98787.34;;;8.38;100.00
68859;BME280;55864;49.238;8.092;2023-11-21T02:40:57;98791.94;;;8.26;100.00
68859;BME280;55864;49.238;8.092;2023-11-21T02:42:57;98787.56;;;8.27;100.00
68859;BME280;55864;49.238;8.092;2023-11-21T02:44:58;98784.53;;;8.49;100.00
68859;BME280;55864;49.238;8.092;2023-11-21T02:46:59;98778.28;;;8.60;100.00
68859;BME280;55864;49.238;8.092;2023-11-21T02:48:59;98777.47;;;8.59;100.00
68859;BME280;55864;49.238;8.092;2023-11-21T02:51:00;98779.97;;;8.96;100.00
68859;BME280;55864;49.238;8.092;2023-11-21T02:53:00;98776.59;;;8.68;100.00
68859;BME280;55864;49.238;8.092;2023-11-21T02:55:02;98776.66;;;8.59;100.00
68859;BME280;55864;49.238;8.092;2023-11-21T02:57:04;98782.00;;;9.02;100.00
68859;BME280;55864;49.238;8.092;2023-11-21T02:59:04;98783.28;;;9.33;100.00
68859;BME280;55864;49.238;8.092;2023-11-21T03:01:05;98783.22;;;9.07;100.00
68859;BME280;55864;49.238;8.092;2023-11-21T03:03:06;98785.75;;;8.99;100.00
68859;BME280;55864;49.238;8.092;2023-11-21T03:05:07;98789.06;;;9.19;100.00
68859;BME280;55864;49.238;8.092;2023-11-21T03:07:08;98794.19;;;8.76;100.00
68859;BME280;55864;49.238;8.092;2023-11-21T03:09:09;98787.63;;;8.62;100.00
68859;BME280;55864;49.238;8.092;2023-11-21T03:11:10;98782.91;;;8.93;100.00
68859;BME280;55864;49.238;8.092;2023-11-21T03:13:11;98786.88;;;8.97;100.00
68859;BME280;55864;49.238;8.092;2023-11-21T03:15:12;98782.50;;;8.70;100.00
68859;BME280;55864;49.238;8.092;2023-11-21T03:17:12;98782.31;;;9.16;100.00
68859;BME280;55864;49.238;8.092;2023-11-21T03:19:13;98782.91;;;9.10;98.71
68859;BME280;55864;49.238;8.092;2023-11-21T03:21:13;98778.78;;;9.25;98.44
68859;BME280;55864;49.238;8.092;2023-11-21T03:23:14;98783.00;;;9.01;100.00
68859;BME280;55864;49.238;8.092;2023-11-21T03:25:15;98785.88;;;8.80;100.00
68859;BME280;55864;49.238;8.092;2023-11-21T03:27:18;98780.97;;;8.95;100.00
68859;BME280;55864;49.238;8.092;2023-11-21T03:29:18;98780.13;;;8.94;100.00
68859;BME280;55864;49.238;8.092;2023-11-21T03:31:19;98780.56;;;8.90;100.00
68859;BME280;55864;49.238;8.092;2023-11-21T03:33:19;98783.91;;;8.65;100.00
68859;BME280;55864;49.238;8.092;2023-11-21T03:35:23;98788.53;;;8.53;100.00
68859;BME280;55864;49.238;8.092;2023-11-21T03:37:23;98794.38;;;8.37;100.00
68859;BME280;55864;49.238;8.092;2023-11-21T03:39:24;98782.56;;;8.78;100.00
68859;BME280;55864;49.238;8.092;2023-11-21T03:41:24;98793.41;;;8.38;100.00
68859;BME280;55864;49.238;8.092;2023-11-21T03:43:26;98788.22;;;8.56;100.00
68859;BME280;55864;49.238;8.092;2023-11-21T03:45:27;98795.13;;;8.75;100.00
68859;BME280;55864;49.238;8.092;2023-11-21T03:47:28;98792.75;;;8.81;100.00
68859;BME280;55864;49.238;8.092;2023-11-21T03:49:28;98794.97;;;8.59;100.00
68859;BME280;55864;49.238;8.092;2023-11-21T03:51:29;98796.22;;;8.99;100.00
68859;BME280;55864;49.238;8.092;2023-11-21T03:53:29;98793.38;;;8.93;100.00
68859;BME280;55864;49.238;8.092;2023-11-21T03:55:30;98789.88;;;9.02;100.00
68859;BME280;55864;49.238;8.092;2023-11-21T03:57:31;98789.28;;;9.08;100.00
68859;BME280;55864;49.238;8.092;2023-11-21T03:59:33;98788.53;;;9.15;100.00
68859;BME280;55864;49.238;8.092;2023-11-21T04:01:33;98790.56;;;9.21;100.00
68859;BME280;55864;49.238;8.092;2023-11-21T04:03:34;98795.34;;;9.43;99.50
68859;BME280;55864;49.238;8.092;2023-11-21T04:05:34;98798.09;;;9.42;97.45
68859;BME280;55864;49.238;8.092;2023-11-21T04:07:35;98791.16;;;9.33;98.63
68859;BME280;55864;49.238;8.092;2023-11-21T04:09:35;98801.84;;;9.22;100.00
68859;BME280;55864;49.238;8.092;2023-11-21T04:11:36;98798.09;;;8.89;100.00
68859;BME280;55864;49.238;8.092;2023-11-21T04:13:36;98805.38;;;9.13;100.00
68859;BME280;55864;49.238;8.092;2023-11-21T04:15:41;98804.03;;;9.44;100.00
68859;BME280;55864;49.238;8.092;2023-11-21T04:17:42;98809.78;;;9.30;100.00
68859;BME280;55864;49.238;8.092;2023-11-21T04:19:45;98812.16;;;9.41;100.00
68859;BME280;55864;49.238;8.092;2023-11-21T04:21:45;98811.56;;;9.47;100.00
68859;BME280;55864;49.238;8.092;2023-11-21T04:23:46;98815.78;;;9.40;100.00
68859;BME280;55864;49.238;8.092;2023-11-21T04:25:46;98818.25;;;9.59;100.00
68859;BME280;55864;49.238;8.092;2023-11-21T04:27:47;98812.09;;;9.50;100.00
68859;BME280;55864;49.238;8.092;2023-11-21T04:29:47;98815.19;;;9.46;100.00
68859;BME280;55864;49.238;8.092;2023-11-21T04:31:49;98817.13;;;9.44;100.00
68859;BME280;55864;49.238;8.092;2023-11-21T04:33:50;98818.75;;;9.45;100.00
68859;BME280;55864;49.238;8.092;2023-11-21T04:35:53;98817.25;;;9.60;98.84
68859;BME280;55864;49.238;8.092;2023-11-21T04:37:54;98815.91;;;9.56;99.12
68859;BME280;55864;49.238;8.092;2023-11-21T04:39:57;98825.72;;;9.54;99.40
68859;BME280;55864;49.238;8.092;2023-11-21T04:41:57;98819.28;;;9.66;98.87
68859;BME280;55864;49.238;8.092;2023-11-21T04:43:58;98829.56;;;9.42;99.38
68859;BME280;55864;49.238;8.092;2023-11-21T04:45:58;98827.81;;;9.50;99.20
68859;BME280;55864;49.238;8.092;2023-11-21T04:48:00;98834.41;;;9.55;99.16
68859;BME280;55864;49.238;8.092;2023-11-21T04:50:01;98831.94;;;9.71;97.17
68859;BME280;55864;49.238;8.092;2023-11-21T04:52:02;98837.63;;;9.66;98.11
68859;BME280;55864;49.238;8.092;2023-11-21T04:54:04;98835.38;;;9.71;97.86
68859;BME280;55864;49.238;8.092;2023-11-21T04:56:05;98836.50;;;9.69;97.58
68859;BME280;55864;49.238;8.092;2023-11-21T04:58:05;98834.25;;;9.74;97.93
68859;BME280;55864;49.238;8.092;2023-11-21T05:00:07;98831.69;;;9.82;97.17
68859;BME280;55864;49.238;8.092;2023-11-21T05:02:07;98838.38;;;9.76;96.73
68859;BME280;55864;49.238;8.092;2023-11-21T05:04:09;98840.91;;;9.86;97.31
68859;BME280;55864;49.238;8.092;2023-11-21T05:06:10;98842.91;;;9.92;95.69
68859;BME280;55864;49.238;8.092;2023-11-21T05:08:11;98851.00;;;9.98;95.57
68859;BME280;55864;49.238;8.092;2023-11-21T05:10:11;98845.41;;;9.93;94.95
68859;BME280;55864;49.238;8.092;2023-11-21T05:12:12;98844.56;;;9.93;95.47
68859;BME280;55864;49.238;8.092;2023-11-21T05:14:13;98849.44;;;9.88;95.60
68859;BME280;55864;49.238;8.092;2023-11-21T05:16:13;98844.41;;;9.94;94.93
68859;BME280;55864;49.238;8.092;2023-11-21T05:18:14;98850.63;;;9.93;93.03
68859;BME280;55864;49.238;8.092;2023-11-21T05:20:16;98854.22;;;9.92;93.41
68859;BME280;55864;49.238;8.092;2023-11-21T05:22:16;98856.88;;;9.75;92.55
68859;BME280;55864;49.238;8.092;2023-11-21T05:24:17;98858.44;;;9.68;93.07
68859;BME280;55864;49.238;8.092;2023-11-21T05:26:17;98866.25;;;9.60;92.22
68859;BME280;55864;49.238;8.092;2023-11-21T05:28:18;98864.59;;;9.59;93.20
68859;BME280;55864;49.238;8.092;2023-11-21T05:30:21;98869.94;;;9.49;91.93
68859;BME280;55864;49.238;8.092;2023-11-21T05:32:22;98870.81;;;9.58;95.72
68859;BME280;55864;49.238;8.092;2023-11-21T05:34:22;98872.69;;;9.47;97.04
68859;BME280;55864;49.238;8.092;2023-11-21T05:36:24;98872.03;;;9.63;96.93
68859;BME280;55864;49.238;8.092;2023-11-21T05:38:25;98877.94;;;9.65;97.53
68859;BME280;55864;49.238;8.092;2023-11-21T05:40:28;98878.38;;;9.78;97.15
68859;BME280;55864;49.238;8.092;2023-11-21T05:42:28;98887.97;;;9.87;96.41
68859;BME280;55864;49.238;8.092;2023-11-21T05:44:29;98885.28;;;9.79;97.26
68859;BME280;55864;49.238;8.092;2023-11-21T05:46:29;98891.47;;;9.96;96.09
68859;BME280;55864;49.238;8.092;2023-11-21T05:48:30;98885.88;;;9.91;95.75
68859;BME280;55864;49.238;8.092;2023-11-21T05:50:30;98889.59;;;10.06;94.93
68859;BME280;55864;49.238;8.092;2023-11-21T05:52:32;98894.69;;;9.90;95.34
68859;BME280;55864;49.238;8.092;2023-11-21T05:54:33;98889.50;;;9.98;95.08
68859;BME280;55864;49.238;8.092;2023-11-21T05:56:34;98900.31;;;9.95;94.85
68859;BME280;55864;49.238;8.092;2023-11-21T05:58:34;98904.13;;;10.00;95.17
68859;BME280;55864;49.238;8.092;2023-11-21T06:00:36;98903.16;;;10.01;94.54
68859;BME280;55864;49.238;8.092;2023-11-21T06:02:37;98912.78;;;10.10;94.26
68859;BME280;55864;49.238;8.092;2023-11-21T06:04:37;98912.81;;;10.18;91.85
68859;BME280;55864;49.238;8.092;2023-11-21T06:06:38;98914.84;;;10.07;90.71
68859;BME280;55864;49.238;8.092;2023-11-21T06:08:40;98914.31;;;10.03;91.02
68859;BME280;55864;49.238;8.092;2023-11-21T06:10:40;98917.56;;;9.80;90.80
68859;BME280;55864;49.238;8.092;2023-11-21T06:12:41;98913.44;;;9.42;92.71
68859;BME280;55864;49.238;8.092;2023-11-21T06:14:42;98926.56;;;9.77;93.61
68859;BME280;55864;49.238;8.092;2023-11-21T06:16:42;98929.41;;;9.84;94.16
68859;BME280;55864;49.238;8.092;2023-11-21T06:18:43;98929.78;;;9.89;94.51
68859;BME280;55864;49.238;8.092;2023-11-21T06:20:43;98941.63;;;9.93;95.19
68859;BME280;55864;49.238;8.092;2023-11-21T06:22:45;98940.88;;;10.00;94.70
68859;BME280;55864;49.238;8.092;2023-11-21T06:24:47;98936.66;;;10.07;95.07
68859;BME280;55864;49.238;8.092;2023-11-21T06:26:47;98940.13;;;10.08;94.28
68859;BME280;55864;49.238;8.092;2023-11-21T06:28:48;98936.09;;;10.13;93.86
68859;BME280;55864;49.238;8.092;2023-11-21T06:30:48;98948.22;;;10.14;94.15
68859;BME280;55864;49.238;8.092;2023-11-21T06:32:49;98952.19;;;10.18;93.37
68859;BME280;55864;49.238;8.092;2023-11-21T06:34:50;98949.97;;;10.23;93.37
68859;BME280;55864;49.238;8.092;2023-11-21T06:36:50;98954.16;;;9.99;96.00
68859;BME280;55864;49.238;8.092;2023-11-21T06:38:51;98947.63;;;10.03;94.24
68859;BME280;55864;49.238;8.092;2023-11-21T06:40:52;98957.13;;;10.04;94.09
68859;BME280;55864;49.238;8.092;2023-11-21T06:42:53;98958.09;;;9.68;94.87
68859;BME280;55864;49.238;8.092;2023-11-21T06:44:53;98962.56;;;9.58;94.51
68859;BME280;55864;49.238;8.092;2023-11-21T06:46:54;98975.09;;;9.64;93.89
68859;BME280;55864;49.238;8.092;2023-11-21T06:48:54;98966.63;;;9.52;93.87
68859;BME280;55864;49.238;8.092;2023-11-21T06:50:58;98971.28;;;9.58;93.33
68859;BME280;55864;49.238;8.092;2023-11-21T06:52:58;98968.81;;;9.57;93.60
68859;BME280;55864;49.238;8.092;2023-11-21T06:54:59;98978.19;;;9.59;92.66
68859;BME280;55864;49.238;8.092;2023-11-21T06:57:01;98978.47;;;9.56;91.64
68859;BME280;55864;49.238;8.092;2023-11-21T06:59:01;98989.81;;;9.20;92.26
68859;BME280;55864;49.238;8.092;2023-11-21T07:01:02;98987.22;;;9.47;94.54
68859;BME280;55864;49.238;8.092;2023-11-21T07:03:03;98989.75;;;9.39;93.27
68859;BME280;55864;49.238;8.092;2023-11-21T07:05:04;98993.44;;;9.46;91.67
68859;BME280;55864;49.238;8.092;2023-11-21T07:07:06;98989.53;;;9.50;92.87
68859;BME280;55864;49.238;8.092;2023-11-21T07:09:07;98992.66;;;9.36;93.32
68859;BME280;55864;49.238;8.092;2023-11-21T07:11:07;99001.44;;;9.44;92.91
68859;BME280;55864;49.238;8.092;2023-11-21T07:13:09;98994.78;;;9.50;91.62
68859;BME280;55864;49.238;8.092;2023-11-21T07:15:10;99001.47;;;9.35;91.69
68859;BME280;55864;49.238;8.092;2023-11-21T07:17:10;99002.31;;;9.35;92.80
68859;BME280;55864;49.238;8.092;2023-11-21T07:19:11;99015.47;;;9.26;93.62
68859;BME280;55864;49.238;8.092;2023-11-21T07:21:11;99018.69;;;9.47;94.08
68859;BME280;55864;49.238;8.092;2023-11-21T07:23:12;99020.09;;;9.41;92.51
68859;BME280;55864;49.238;8.092;2023-11-21T07:25:13;99025.56;;;9.21;93.84
68859;BME280;55864;49.238;8.092;2023-11-21T07:27:13;99021.53;;;9.26;92.27
68859;BME280;55864;49.238;8.092;2023-11-21T07:29:15;99026.00;;;9.43;91.70
68859;BME280;55864;49.238;8.092;2023-11-21T07:31:16;99026.53;;;9.47;91.86
68859;BME280;55864;49.238;8.092;2023-11-21T07:33:16;99030.47;;;9.33;93.05
68859;BME280;55864;49.238;8.092;2023-11-21T07:35:17;99032.88;;;9.44;91.89
68859;BME280;55864;49.238;8.092;2023-11-21T07:37:17;99041.44;;;9.46;93.44
68859;BME280;55864;49.238;8.092;2023-11-21T07:39:18;99038.44;;;9.41;91.82
68859;BME280;55864;49.238;8.092;2023-11-21T07:41:18;99040.06;;;9.42;91.55
68859;BME280;55864;49.238;8.092;2023-11-21T07:43:19;99039.00;;;9.35;90.67
68859;BME280;55864;49.238;8.092;2023-11-21T07:45:21;99042.31;;;9.37;90.45
68859;BME280;55864;49.238;8.092;2023-11-21T07:47:21;99048.09;;;9.41;90.54
68859;BME280;55864;49.238;8.092;2023-11-21T07:49:22;99050.72;;;9.41;90.56
68859;BME280;55864;49.238;8.092;2023-11-21T07:51:23;99053.06;;;9.44;89.23
68859;BME280;55864;49.238;8.092;2023-11-21T07:53:23;99053.31;;;9.41;89.75
68859;BME280;55864;49.238;8.092;2023-11-21T07:55:24;99049.22;;;9.38;90.24
68859;BME280;55864;49.238;8.092;2023-11-21T07:57:24;99057.31;;;9.45;89.70
68859;BME280;55864;49.238;8.092;2023-11-21T07:59:25;99066.84;;;9.46;90.19
68859;BME280;55864;49.238;8.092;2023-11-21T08:01:27;99065.56;;;9.50;89.04
68859;BME280;55864;49.238;8.092;2023-11-21T08:03:27;99064.59;;;9.51;90.81
68859;BME280;55864;49.238;8.092;2023-11-21T08:05:28;99063.88;;;9.59;92.31
68859;BME280;55864;49.238;8.092;2023-11-21T08:07:31;99077.78;;;9.69;93.44
68859;BME280;55864;49.238;8.092;2023-11-21T08:09:31;99072.75;;;9.75;94.02
68859;BME280;55864;49.238;8.092;2023-11-21T08:11:32;99067.63;;;9.83;93.34
68859;BME280;55864;49.238;8.092;2023-11-21T08:13:32;99073.47;;;9.95;94.30
68859;BME280;55864;49.238;8.092;2023-11-21T08:15:33;99079.63;;;10.03;93.78
68859;BME280;55864;49.238;8.092;2023-11-21T08:17:35;99084.44;;;10.08;93.29
68859;BME280;55864;49.238;8.092;2023-11-21T08:19:35;99090.63;;;10.16;92.82
68859;BME280;55864;49.238;8.092;2023-11-21T08:21:36;99088.00;;;10.16;92.07
68859;BME280;55864;49.238;8.092;2023-11-21T08:23:36;99086.72;;;10.20;91.74
68859;BME280;55864;49.238;8.092;2023-11-21T08:25:37;99088.09;;;10.24;92.53
68859;BME280;55864;49.238;8.092;2023-11-21T08:27:38;99097.00;;;10.31;91.19
68859;BME280;55864;49.238;8.092;2023-11-21T08:29:41;99097.41;;;10.36;91.10
68859;BME280;55864;49.238;8.092;2023-11-21T08:31:42;99103.03;;;10.41;91.27
68859;BME280;55864;49.238;8.092;2023-11-21T08:33:44;99106.13;;;10.37;91.15
68859;BME280;55864;49.238;8.092;2023-11-21T08:35:44;99109.94;;;10.43;91.29
68859;BME280;55864;49.238;8.092;2023-11-21T08:37:48;99107.38;;;10.51;89.70
68859;BME280;55864;49.238;8.092;2023-11-21T08:39:48;99108.00;;;10.45;90.42
68859;BME280;55864;49.238;8.092;2023-11-21T08:41:49;99103.84;;;10.42;90.18
68859;BME280;55864;49.238;8.092;2023-11-21T08:43:50;99109.88;;;10.52;88.86
68859;BME280;55864;49.238;8.092;2023-11-21T08:45:51;99109.31;;;10.49;91.82
68859;BME280;55864;49.238;8.092;2023-11-21T08:47:51;99107.84;;;10.46;91.45
68859;BME280;55864;49.238;8.092;2023-11-21T08:49:53;99106.09;;;10.55;91.49
68859;BME280;55864;49.238;8.092;2023-11-21T08:51:53;99108.50;;;10.48;89.88
68859;BME280;55864;49.238;8.092;2023-11-21T08:53:54;99113.06;;;10.64;88.39
68859;BME280;55864;49.238;8.092;2023-11-21T08:55:55;99121.47;;;10.50;90.83
68859;BME280;55864;49.238;8.092;2023-11-21T08:57:55;99120.28;;;10.62;88.81
68859;BME280;55864;49.238;8.092;2023-11-21T08:59:56;99110.91;;;10.59;88.09
68859;BME280;55864;49.238;8.092;2023-11-21T09:01:56;99119.09;;;10.38;87.88
68859;BME280;55864;49.238;8.092;2023-11-21T09:03:57;99122.81;;;10.09;86.77
68859;BME280;55864;49.238;8.092;2023-11-21T09:05:59;99122.13;;;9.89;86.98
68859;BME280;55864;49.238;8.092;2023-11-21T09:07:59;99120.31;;;10.17;87.43
68859;BME280;55864;49.238;8.092;2023-11-21T09:10:01;99130.66;;;10.18;86.66
68859;BME280;55864;49.238;8.092;2023-11-21T09:12:02;99126.56;;;10.16;87.23
68859;BME280;55864;49.238;8.092;2023-11-21T09:14:03;99133.19;;;9.83;88.76
68859;BME280;55864;49.238;8.092;2023-11-21T09:16:04;99134.78;;;9.94;88.25
68859;BME280;55864;49.238;8.092;2023-11-21T09:18:04;99134.34;;;9.98;88.56
68859;BME280;55864;49.238;8.092;2023-11-21T09:20:07;99144.53;;;10.11;88.37
68859;BME280;55864;49.238;8.092;2023-11-21T09:22:09;99145.22;;;10.03;87.68
68859;BME280;55864;49.238;8.092;2023-11-21T09:24:09;99148.69;;;10.04;88.35
68859;BME280;55864;49.238;8.092;2023-11-21T09:26:10;99150.78;;;10.00;89.15
68859;BME280;55864;49.238;8.092;2023-11-21T09:28:10;99146.19;;;10.12;88.42
68859;BME280;55864;49.238;8.092;2023-11-21T09:30:12;99146.34;;;10.28;87.73
68859;BME280;55864;49.238;8.092;2023-11-21T09:32:12;99150.47;;;10.03;88.62
68859;BME280;55864;49.238;8.092;2023-11-21T09:34:13;99151.09;;;9.97;89.06
68859;BME280;55864;49.238;8.092;2023-11-21T09:36:13;99154.09;;;10.02;88.78
68859;BME280;55864;49.238;8.092;2023-11-21T09:38:15;99162.91;;;10.11;88.08
68859;BME280;55864;49.238;8.092;2023-11-21T09:40:21;99162.50;;;10.06;87.96
68859;BME280;55864;49.238;8.092;2023-11-21T09:42:25;99167.78;;;9.96;88.80
68859;BME280;55864;49.238;8.092;2023-11-21T09:44:31;99171.41;;;10.22;88.01
68859;BME280;55864;49.238;8.092;2023-11-21T09:46:33;99176.72;;;10.03;89.69
68859;BME280;55864;49.238;8.092;2023-11-21T09:48:35;99172.00;;;10.07;87.96
68859;BME280;55864;49.238;8.092;2023-11-21T09:50:39;99171.81;;;10.27;87.94
68859;BME280;55864;49.238;8.092;2023-11-21T09:52:51;99179.16;;;10.41;86.15
68859;BME280;55864;49.238;8.092;2023-11-21T09:54:56;99181.78;;;10.41;86.93
68859;BME280;55864;49.238;8.092;2023-11-21T09:56:57;99174.22;;;10.38;87.88
68859;BME280;55864;49.238;8.092;2023-11-21T09:58:58;99184.50;;;10.50;87.21
68859;BME280;55864;49.238;8.092;2023-11-21T10:01:01;99182.38;;;10.35;88.13
68859;BME280;55864;49.238;8.092;2023-11-21T10:03:01;99183.06;;;10.37;87.96
68859;BME280;55864;49.238;8.092;2023-11-21T10:05:02;99187.19;;;10.40;87.82
68859;BME280;55864;49.238;8.092;2023-11-21T10:07:06;99187.41;;;10.47;87.28
68859;BME280;55864;49.238;8.092;2023-11-21T10:09:10;99188.09;;;10.49;86.28
68859;BME280;55864;49.238;8.092;2023-11-21T10:11:12;99191.72;;;10.48;87.42
68859;BME280;55864;49.238;8.092;2023-11-21T10:13:14;99193.97;;;10.43;87.37
68859;BME280;55864;49.238;8.092;2023-11-21T10:15:16;99194.25;;;10.39;88.45
68859;BME280;55864;49.238;8.092;2023-11-21T10:17:17;99194.19;;;10.22;89.85
68859;BME280;55864;49.238;8.092;2023-11-21T10:19:18;99200.38;;;10.30;89.83
68859;BME280;55864;49.238;8.092;2023-11-21T10:21:22;99197.06;;;10.56;87.96
68859;BME280;55864;49.238;8.092;2023-11-21T10:23:22;99205.03;;;10.36;89.56
68859;BME280;55864;49.238;8.092;2023-11-21T10:25:23;99206.47;;;10.49;88.94
68859;BME280;55864;49.238;8.092;2023-11-21T10:27:26;99203.09;;;10.38;89.73
68859;BME280;55864;49.238;8.092;2023-11-21T10:29:29;99204.38;;;10.34;89.86
68859;BME280;55864;49.238;8.092;2023-11-21T10:31:29;99205.63;;;10.30;89.47
68859;BME280;55864;49.238;8.092;2023-11-21T10:33:30;99203.31;;;10.45;89.21
68859;BME280;55864;49.238;8.092;2023-11-21T10:35:43;99209.13;;;10.21;90.69
68859;BME280;55864;49.238;8.092;2023-11-21T10:37:43;99205.38;;;10.51;89.04
68859;BME280;55864;49.238;8.092;2023-11-21T10:39:44;99206.22;;;10.24;91.74
68859;BME280;55864;49.238;8.092;2023-11-21T10:41:45;99213.66;;;10.29;91.62
68859;BME280;55864;49.238;8.092;2023-11-21T10:43:47;99204.63;;;10.31;90.85
68859;BME280;55864;49.238;8.092;2023-11-21T10:45:48;99209.72;;;10.43;90.88